Time;durP1;ratioP1;P1;durP2;ratioP2;P2;SDS_P1;SDS_P2;PMS_P1;PMS_P2;Temp;Humidity;BMP_temperature;BMP_pressure;BME280_temperature;BME280_humidity;BME280_pressure;Samples;Min_cycle;Max_cycle;Signal;HPM_P1;HPM_P2
2022/07/06 00:01:06;;;;;;;;;;;28.50;48.30;;;;;;5055641;28;20000;-81
2022/07/06 00:03:31;;;;;;;;;;;28.50;48.30;;;;;;5037477;28;19919;-81
2022/07/06 00:05:57;;;;;;;;;;;28.40;48.40;;;;;;5055314;28;19919;-81
2022/07/06 00:08:22;;;;;;;;;;;28.40;48.40;;;;;;5055776;28;19909;-80
2022/07/06 00:10:48;;;;;;;;;;;28.40;48.40;;;;;;5038658;28;19909;-80
2022/07/06 00:13:13;;;;;;;;;;;28.40;48.50;;;;;;5037465;28;20296;-80
2022/07/06 00:15:39;;;;;;;;;;;28.40;48.50;;;;;;5055483;28;19908;-80
2022/07/06 00:18:04;;;;;;;;;;;28.40;48.60;;;;;;5055562;28;19909;-81
2022/07/06 00:20:30;;;;;;;;;;;28.40;48.60;;;;;;5055026;28;19912;-81
2022/07/06 00:22:55;;;;;;;;;;;28.40;48.70;;;;;;5037975;28;20372;-80
2022/07/06 00:25:21;;;;;;;;;;;28.30;48.60;;;;;;5055480;28;20351;-80
2022/07/06 00:27:46;;;;;;;;;;;28.30;48.60;;;;;;5055021;28;19963;-81
2022/07/06 00:30:12;;;;;;;;;;;28.30;48.70;;;;;;5054540;28;20274;-81
2022/07/06 00:32:38;;;;;;;;;;;28.30;48.80;;;;;;5054543;28;19909;-81
2022/07/06 00:35:04;;;;;;;;;;;28.30;49.50;;;;;;5055092;28;19917;-81
2022/07/06 00:37:29;;;;;;;;;;;28.20;48.80;;;;;;5054834;28;19928;-81
2022/07/06 00:39:55;;;;;;;;;;;28.30;49.00;;;;;;5037179;28;19924;-81
2022/07/06 00:42:20;;;;;;;;;;;28.30;49.00;;;;;;5054932;28;19916;-81
2022/07/06 00:44:46;;;;;;;;;;;28.20;48.90;;;;;;5054841;28;19967;-80
2022/07/06 00:47:11;;;;;;;;;;;28.20;48.90;;;;;;5054646;28;20003;-80
2022/07/06 00:52:21;;;;;;;;;;;28.20;49.00;;;;;;5054590;28;19996;-80
2022/07/06 00:54:47;;;;;;;;;;;28.20;49.10;;;;;;5055059;28;19956;-80
2022/07/06 00:57:13;;;;;;;;;;;28.20;49.10;;;;;;5054639;28;19913;-79
2022/07/06 00:59:38;;;;;;;;;;;28.20;49.10;;;;;;5054144;28;19916;-81
2022/07/06 01:02:04;;;;;;;;;;;28.10;49.00;;;;;;5054257;28;19920;-81
2022/07/06 01:04:29;;;;;;;;;;;28.10;49.10;;;;;;5054952;28;20003;-81
2022/07/06 01:06:56;;;;;;;;;;;28.10;49.10;;;;;;5036614;28;19909;-81
2022/07/06 01:09:22;;;;;;;;;;;28.10;49.10;;;;;;5054395;28;19909;-80
2022/07/06 01:11:47;;;;;;;;;;;28.10;49.20;;;;;;5054370;28;20216;-81
2022/07/06 01:14:14;;;;;;;;;;;28.10;49.20;;;;;;5053605;28;19919;-81
2022/07/06 01:16:39;;;;;;;;;;;28.10;49.20;;;;;;5054112;28;19915;-81
2022/07/06 01:19:05;;;;;;;;;;;28.10;49.30;;;;;;5054553;28;19944;-81
2022/07/06 01:21:30;;;;;;;;;;;28.10;49.30;;;;;;5055969;28;19961;-80
2022/07/06 01:23:56;;;;;;;;;;;28.10;49.40;;;;;;5054131;28;20363;-80
2022/07/06 01:26:22;;;;;;;;;;;28.00;49.30;;;;;;5054403;28;20367;-81
2022/07/06 01:28:49;;;;;;;;;;;28.10;49.40;;;;;;5054286;28;20268;-81
2022/07/06 01:31:16;;;;;;;;;;;28.00;49.40;;;;;;5054760;28;19909;-81
2022/07/06 01:33:42;;;;;;;;;;;28.00;49.40;;;;;;5054625;28;20027;-80
2022/07/06 01:36:07;;;;;;;;;;;28.00;49.50;;;;;;5054160;28;20393;-80
2022/07/06 01:38:42;;;;;;;;;;;28.00;49.50;;;;;;5036019;28;19936;-81
2022/07/06 01:41:08;;;;;;;;;;;28.00;49.50;;;;;;5054057;28;19920;-80
2022/07/06 01:43:33;;;;;;;;;;;28.00;49.50;;;;;;5037776;28;19916;-81
2022/07/06 01:45:59;;;;;;;;;;;28.00;49.60;;;;;;5058661;28;19917;-81
2022/07/06 01:48:24;;;;;;;;;;;28.00;49.60;;;;;;5054137;28;20008;-81
2022/07/06 01:50:50;;;;;;;;;;;27.90;49.50;;;;;;5036702;28;19954;-81
2022/07/06 01:53:16;;;;;;;;;;;27.90;49.50;;;;;;5035993;28;19909;-80
2022/07/06 01:55:41;;;;;;;;;;;27.90;49.60;;;;;;5035970;28;19916;-81
2022/07/06 01:58:07;;;;;;;;;;;27.90;49.60;;;;;;5054299;28;19915;-80
2022/07/06 02:00:32;;;;;;;;;;;27.90;49.60;;;;;;5035428;28;19920;-81
2022/07/06 02:02:58;;;;;;;;;;;27.90;49.70;;;;;;5054087;28;19913;-80
2022/07/06 02:05:23;;;;;;;;;;;27.90;49.60;;;;;;5035891;28;19963;-81
2022/07/06 02:07:49;;;;;;;;;;;27.90;49.60;;;;;;5053638;28;20312;-81
2022/07/06 02:10:14;;;;;;;;;;;27.90;49.60;;;;;;5036030;28;19908;-80
2022/07/06 02:12:40;;;;;;;;;;;27.90;49.60;;;;;;5054027;28;20270;-81
2022/07/06 02:15:06;;;;;;;;;;;27.90;49.70;;;;;;5053361;28;19916;-81
2022/07/06 02:17:31;;;;;;;;;;;27.90;49.70;;;;;;5053707;28;19913;-81
2022/07/06 02:19:57;;;;;;;;;;;27.90;49.70;;;;;;5035850;28;19916;-81
2022/07/06 02:22:22;;;;;;;;;;;27.90;49.80;;;;;;5036165;28;19927;-81
2022/07/06 02:24:48;;;;;;;;;;;27.90;49.80;;;;;;5035625;28;19908;-80
2022/07/06 02:27:13;;;;;;;;;;;27.90;49.80;;;;;;5056657;28;19935;-80
2022/07/06 02:29:39;;;;;;;;;;;27.90;49.80;;;;;;5056686;28;19908;-80
2022/07/06 02:32:05;;;;;;;;;;;28.00;49.90;;;;;;5058759;28;20374;-82
2022/07/06 02:34:30;;;;;;;;;;;27.90;49.80;;;;;;5030358;28;20386;-80
2022/07/06 02:36:56;;;;;;;;;;;27.90;49.80;;;;;;5038522;28;19916;-80
2022/07/06 02:39:21;;;;;;;;;;;27.90;49.80;;;;;;5074450;28;19915;-81
2022/07/06 02:41:47;;;;;;;;;;;27.90;49.80;;;;;;5073134;28;19919;-80
2022/07/06 02:44:12;;;;;;;;;;;28.00;49.90;;;;;;5075491;28;20390;-81
2022/07/06 02:46:38;;;;;;;;;;;28.00;50.00;;;;;;5072284;28;19916;-81
2022/07/06 02:49:03;;;;;;;;;;;27.90;49.90;;;;;;5077147;28;19978;-82
2022/07/06 02:51:29;;;;;;;;;;;28.00;49.90;;;;;;5070553;28;19916;-81
2022/07/06 02:53:54;;;;;;;;;;;28.00;49.90;;;;;;5076661;28;19974;-80
2022/07/06 02:56:20;;;;;;;;;;;28.00;50.00;;;;;;5070620;28;19919;-80
2022/07/06 02:58:45;;;;;;;;;;;28.00;50.00;;;;;;5076935;28;19908;-81
2022/07/06 03:01:11;;;;;;;;;;;28.00;50.00;;;;;;5058139;28;20014;-80
2022/07/06 03:03:36;;;;;;;;;;;28.00;50.00;;;;;;5038968;28;20015;-80
2022/07/06 03:06:02;;;;;;;;;;;28.00;50.00;;;;;;5057437;28;19955;-79
2022/07/06 03:08:27;;;;;;;;;;;28.00;50.10;;;;;;5056672;28;19909;-82
2022/07/06 03:10:53;;;;;;;;;;;28.00;50.40;;;;;;5055861;28;19917;-81
2022/07/06 03:13:19;;;;;;;;;;;28.00;50.80;;;;;;5055579;28;19909;-76
2022/07/06 03:15:44;;;;;;;;;;;27.90;50.80;;;;;;5069997;28;19920;-76
2022/07/06 03:18:10;;;;;;;;;;;27.80;51.30;;;;;;5069089;28;19908;-74
2022/07/06 03:20:35;;;;;;;;;;;27.50;50.90;;;;;;5057119;28;19916;-75
2022/07/06 03:23:01;;;;;;;;;;;27.40;50.70;;;;;;5069316;28;19916;-74
2022/07/06 03:25:26;;;;;;;;;;;27.30;51.00;;;;;;5058618;28;19913;-75
2022/07/06 03:27:52;;;;;;;;;;;27.30;51.30;;;;;;5076685;28;19944;-77
2022/07/06 03:30:17;;;;;;;;;;;27.30;52.30;;;;;;5076076;28;19919;-75
2022/07/06 03:32:43;;;;;;;;;;;27.20;52.70;;;;;;5076617;28;19919;-77
2022/07/06 03:35:09;;;;;;;;;;;27.20;52.50;;;;;;5053972;28;19935;-74
2022/07/06 03:37:34;;;;;;;;;;;27.10;53.70;;;;;;5054260;28;19920;-75
2022/07/06 03:40:00;;;;;;;;;;;27.10;52.40;;;;;;5037105;28;20291;-75
2022/07/06 03:42:25;;;;;;;;;;;27.00;52.20;;;;;;5037364;28;20338;-76
2022/07/06 03:44:51;;;;;;;;;;;27.00;52.40;;;;;;5055851;28;19924;-76
2022/07/06 03:47:16;;;;;;;;;;;27.00;52.40;;;;;;5036993;28;19913;-77
2022/07/06 03:49:42;;;;;;;;;;;27.00;52.60;;;;;;5054800;28;19917;-76
2022/07/06 03:52:07;;;;;;;;;;;27.00;52.50;;;;;;5036816;28;19915;-75
2022/07/06 03:54:33;;;;;;;;;;;27.00;52.70;;;;;;5054357;28;19917;-79
2022/07/06 03:56:59;;;;;;;;;;;27.00;53.20;;;;;;5039069;28;19909;-75
2022/07/06 03:59:24;;;;;;;;;;;27.10;53.20;;;;;;5036316;28;19908;-77
2022/07/06 04:01:50;;;;;;;;;;;27.10;53.30;;;;;;5036563;28;19917;-76
2022/07/06 04:04:15;;;;;;;;;;;27.10;53.40;;;;;;5053935;28;20317;-76
2022/07/06 04:06:41;;;;;;;;;;;27.00;52.80;;;;;;5054200;28;20343;-75
2022/07/06 04:09:06;;;;;;;;;;;27.00;52.20;;;;;;5054231;28;19908;-76
2022/07/06 04:11:32;;;;;;;;;;;27.00;52.00;;;;;;5054028;28;19932;-76
2022/07/06 04:13:57;;;;;;;;;;;26.90;52.30;;;;;;5040345;28;20359;-76
2022/07/06 04:16:23;;;;;;;;;;;26.90;51.90;;;;;;5074338;28;19916;-77
2022/07/06 04:18:48;;;;;;;;;;;26.90;52.50;;;;;;5074317;28;19908;-76
2022/07/06 04:21:14;;;;;;;;;;;26.90;51.90;;;;;;5056825;28;19923;-78
2022/07/06 04:23:39;;;;;;;;;;;26.90;52.00;;;;;;5073882;28;20321;-75
2022/07/06 04:26:05;;;;;;;;;;;27.00;52.00;;;;;;5055899;28;19909;-76
2022/07/06 04:28:30;;;;;;;;;;;26.90;51.90;;;;;;5073488;28;19915;-76
2022/07/06 04:30:56;;;;;;;;;;;27.00;52.00;;;;;;5070511;28;20333;-78
2022/07/06 04:33:22;;;;;;;;;;;27.00;51.90;;;;;;5062308;28;19913;-76
2022/07/06 04:35:47;;;;;;;;;;;27.10;52.10;;;;;;5072084;28;19931;-75
2022/07/06 04:38:13;;;;;;;;;;;27.10;52.10;;;;;;5054900;28;19932;-76
2022/07/06 04:40:39;;;;;;;;;;;27.20;52.00;;;;;;5072846;28;19919;-76
2022/07/06 04:43:04;;;;;;;;;;;27.20;52.00;;;;;;5054583;28;19924;-77
2022/07/06 04:45:30;;;;;;;;;;;27.20;52.00;;;;;;5054453;28;20280;-78
2022/07/06 04:47:55;;;;;;;;;;;27.30;52.10;;;;;;5072386;28;19953;-78
2022/07/06 04:50:21;;;;;;;;;;;26.70;51.70;;;;;;5071004;28;19965;-76
2022/07/06 04:52:47;;;;;;;;;;;27.40;52.10;;;;;;5073708;28;19998;-76
2022/07/06 04:55:14;;;;;;;;;;;27.40;52.10;;;;;;5054296;28;19908;-76
2022/07/06 04:57:40;;;;;;;;;;;27.40;52.00;;;;;;5054457;28;20051;-76
2022/07/06 05:00:06;;;;;;;;;;;27.50;52.00;;;;;;5054804;28;20014;-77
2022/07/06 05:02:32;;;;;;;;;;;27.50;51.90;;;;;;5071442;28;19924;-75
2022/07/06 05:04:57;;;;;;;;;;;27.60;52.20;;;;;;5071602;28;19909;-75
2022/07/06 05:07:27;;;;;;;;;;;27.60;51.90;;;;;;5071325;28;19939;-75
2022/07/06 05:09:53;;;;;;;;;;;27.70;51.90;;;;;;5054808;28;19912;-75
2022/07/06 05:12:19;;;;;;;;;;;27.80;51.90;;;;;;5072004;28;19909;-75
2022/07/06 05:14:44;;;;;;;;;;;27.80;51.70;;;;;;5053047;28;20362;-78
2022/07/06 05:17:10;;;;;;;;;;;27.90;51.70;;;;;;5072950;28;19915;-76
2022/07/06 05:19:35;;;;;;;;;;;27.90;51.50;;;;;;5054630;28;19909;-75
2022/07/06 05:22:01;;;;;;;;;;;28.00;51.60;;;;;;5072780;28;20027;-76
2022/07/06 05:24:26;;;;;;;;;;;28.00;51.60;;;;;;5072467;28;20326;-76
2022/07/06 05:26:52;;;;;;;;;;;28.00;51.50;;;;;;5072346;28;19970;-73
2022/07/06 05:29:17;;;;;;;;;;;28.10;51.60;;;;;;5072173;28;19923;-77
2022/07/06 05:31:43;;;;;;;;;;;28.10;51.60;;;;;;5072272;28;20003;-74
2022/07/06 05:34:09;;;;;;;;;;;28.20;51.60;;;;;;5054536;28;19959;-76
2022/07/06 05:36:34;;;;;;;;;;;28.20;51.60;;;;;;5072270;28;19960;-78
2022/07/06 05:39:00;;;;;;;;;;;28.20;51.60;;;;;;5072769;28;19924;-75
2022/07/06 05:41:25;;;;;;;;;;;28.30;51.70;;;;;;5072325;28;19913;-81
2022/07/06 05:43:51;;;;;;;;;;;28.30;51.50;;;;;;5072335;28;19963;-80
2022/07/06 05:46:16;;;;;;;;;;;28.30;51.40;;;;;;5072688;28;19963;-79
2022/07/06 05:51:26;;;;;;;;;;;28.40;51.70;;;;;;5071999;28;20349;-80
2022/07/06 05:53:52;;;;;;;;;;;28.40;51.50;;;;;;5072622;28;19908;-79
2022/07/06 05:56:17;;;;;;;;;;;28.50;51.60;;;;;;5055907;28;19916;-79
2022/07/06 05:58:43;;;;;;;;;;;28.50;51.70;;;;;;5073636;28;20320;-80
2022/07/06 06:01:08;;;;;;;;;;;28.60;51.60;;;;;;5059170;28;19912;-80
2022/07/06 06:03:34;;;;;;;;;;;28.60;51.40;;;;;;5077587;28;19912;-79
2022/07/06 06:06:00;;;;;;;;;;;28.60;51.50;;;;;;5078094;28;20000;-82
2022/07/06 06:08:25;;;;;;;;;;;28.60;51.50;;;;;;5059874;28;19958;-78
2022/07/06 06:10:51;;;;;;;;;;;28.60;51.50;;;;;;5077532;28;19908;-79
2022/07/06 06:13:17;;;;;;;;;;;28.60;51.40;;;;;;5078251;28;19914;-79
2022/07/06 06:15:42;;;;;;;;;;;28.70;51.40;;;;;;5077505;28;20316;-80
2022/07/06 06:18:08;;;;;;;;;;;28.70;51.20;;;;;;5077522;28;19930;-79
2022/07/06 06:20:34;;;;;;;;;;;28.70;51.20;;;;;;5077734;28;19920;-79
2022/07/06 06:22:59;;;;;;;;;;;28.70;51.30;;;;;;5077589;28;20381;-80
2022/07/06 06:25:28;;;;;;;;;;;28.70;51.10;;;;;;5077590;28;19932;-81
2022/07/06 06:27:53;;;;;;;;;;;28.70;51.10;;;;;;5077181;28;19913;-79
2022/07/06 06:30:19;;;;;;;;;;;28.80;51.10;;;;;;5059493;28;20282;-79
2022/07/06 06:32:44;;;;;;;;;;;28.80;51.10;;;;;;5077411;28;19991;-79
2022/07/06 06:35:10;;;;;;;;;;;28.80;51.00;;;;;;5059542;28;19909;-79
2022/07/06 06:37:36;;;;;;;;;;;28.80;51.10;;;;;;5077232;28;20378;-80
2022/07/06 06:40:02;;;;;;;;;;;28.80;51.00;;;;;;5059133;28;20351;-80
2022/07/06 06:42:28;;;;;;;;;;;28.80;50.90;;;;;;5060115;28;19963;-80
2022/07/06 06:44:53;;;;;;;;;;;28.90;51.00;;;;;;5077149;28;19967;-80
2022/07/06 06:47:20;;;;;;;;;;;28.90;50.90;;;;;;5077096;28;20354;-80
2022/07/06 06:49:45;;;;;;;;;;;28.90;50.90;;;;;;5077519;28;19971;-79
2022/07/06 06:52:11;;;;;;;;;;;28.90;50.80;;;;;;5077269;28;19912;-79
2022/07/06 06:54:37;;;;;;;;;;;27.70;50.00;;;;;;5077001;28;19919;-78
2022/07/06 06:57:02;;;;;;;;;;;28.90;50.70;;;;;;5059264;28;19908;-78
2022/07/06 06:59:28;;;;;;;;;;;28.90;50.60;;;;;;5076826;28;19908;-79
2022/07/06 07:01:53;;;;;;;;;;;29.00;50.60;;;;;;5058906;28;19916;-79
2022/07/06 07:04:19;;;;;;;;;;;29.00;50.60;;;;;;5058966;28;20019;-79
2022/07/06 07:06:44;;;;;;;;;;;29.00;50.60;;;;;;5076454;28;19931;-80
2022/07/06 07:09:10;;;;;;;;;;;29.00;50.60;;;;;;5078857;28;19908;-80
2022/07/06 07:11:35;;;;;;;;;;;29.00;50.50;;;;;;5059243;28;19916;-79
2022/07/06 07:14:01;;;;;;;;;;;29.10;50.70;;;;;;5075424;28;19915;-78
2022/07/06 07:16:27;;;;;;;;;;;29.00;50.60;;;;;;5058733;28;19908;-79
2022/07/06 07:18:53;;;;;;;;;;;29.10;50.80;;;;;;5076508;28;20293;-79
2022/07/06 07:21:18;;;;;;;;;;;29.10;50.80;;;;;;5078934;28;19913;-80
2022/07/06 07:23:44;;;;;;;;;;;29.10;50.90;;;;;;5060747;28;19916;-78
2022/07/06 07:26:09;;;;;;;;;;;29.10;51.00;;;;;;5076589;28;19908;-78
2022/07/06 07:28:35;;;;;;;;;;;29.10;51.00;;;;;;5077394;28;19913;-78
2022/07/06 07:31:01;;;;;;;;;;;29.20;51.10;;;;;;5058789;28;20381;-79
2022/07/06 07:33:27;;;;;;;;;;;29.20;51.10;;;;;;5076123;28;19915;-79
2022/07/06 07:35:52;;;;;;;;;;;29.20;51.10;;;;;;5075922;28;19908;-79
2022/07/06 07:38:18;;;;;;;;;;;29.20;51.10;;;;;;5076298;28;19921;-79
2022/07/06 07:40:43;;;;;;;;;;;29.20;51.20;;;;;;5076266;28;19939;-79
2022/07/06 07:43:09;;;;;;;;;;;29.20;51.20;;;;;;5058018;28;19919;-78
2022/07/06 07:45:34;;;;;;;;;;;29.20;51.20;;;;;;5058040;28;19917;-79
2022/07/06 07:48:00;;;;;;;;;;;29.30;51.20;;;;;;5057995;28;19919;-80
2022/07/06 07:50:26;;;;;;;;;;;29.30;51.30;;;;;;5075719;28;20007;-79
2022/07/06 07:52:52;;;;;;;;;;;29.30;51.30;;;;;;5075857;28;19940;-79
2022/07/06 07:55:17;;;;;;;;;;;29.30;51.30;;;;;;5076443;28;19982;-79
2022/07/06 07:57:43;;;;;;;;;;;29.30;51.20;;;;;;5075809;28;19983;-78
2022/07/06 08:00:09;;;;;;;;;;;29.40;51.30;;;;;;5075624;28;19916;-78
2022/07/06 08:02:34;;;;;;;;;;;29.30;51.20;;;;;;5075487;28;19913;-79
2022/07/06 08:05:00;;;;;;;;;;;28.60;50.70;;;;;;5076057;28;19908;-79
2022/07/06 08:07:25;;;;;;;;;;;29.40;51.20;;;;;;5075405;28;20335;-79
2022/07/06 08:09:51;;;;;;;;;;;29.40;51.20;;;;;;5075380;28;20282;-79
2022/07/06 08:12:17;;;;;;;;;;;29.40;51.00;;;;;;5075261;28;19909;-78
2022/07/06 08:14:42;;;;;;;;;;;29.40;51.00;;;;;;5075451;28;19924;-79
2022/07/06 08:17:08;;;;;;;;;;;29.40;50.90;;;;;;5077241;28;19916;-79
2022/07/06 08:19:33;;;;;;;;;;;29.40;50.90;;;;;;5076861;28;19936;-81
2022/07/06 08:21:59;;;;;;;;;;;29.40;50.90;;;;;;5075304;28;19963;-80
2022/07/06 08:24:24;;;;;;;;;;;29.40;50.80;;;;;;5074857;28;19935;-79
2022/07/06 08:26:50;;;;;;;;;;;29.50;50.90;;;;;;5075187;28;20023;-79
2022/07/06 08:29:15;;;;;;;;;;;29.50;50.90;;;;;;5057456;28;20308;-80
2022/07/06 08:31:41;;;;;;;;;;;29.50;51.30;;;;;;5075009;28;20409;-80
2022/07/06 08:34:06;;;;;;;;;;;29.60;51.50;;;;;;5075056;28;20412;-80
2022/07/06 08:36:32;;;;;;;;;;;29.60;51.20;;;;;;5075028;28;20351;-79
2022/07/06 08:38:58;;;;;;;;;;;29.60;51.30;;;;;;5076104;28;20270;-80
2022/07/06 08:41:24;;;;;;;;;;;29.60;51.30;;;;;;5075076;28;19920;-79
2022/07/06 08:43:51;;;;;;;;;;;29.70;51.20;;;;;;5074653;28;19966;-80
2022/07/06 08:46:17;;;;;;;;;;;29.70;51.20;;;;;;5074584;28;20358;-79
2022/07/06 08:48:45;;;;;;;;;;;29.70;51.30;;;;;;5077451;28;19912;-80
2022/07/06 08:51:12;;;;;;;;;;;29.70;51.70;;;;;;5056803;28;19909;-80
2022/07/06 08:53:39;;;;;;;;;;;29.80;51.70;;;;;;5075292;28;19944;-79
2022/07/06 08:56:04;;;;;;;;;;;29.80;51.60;;;;;;5076041;28;19926;-80
2022/07/06 08:58:31;;;;;;;;;;;29.80;51.90;;;;;;5075412;28;19999;-79
2022/07/06 09:00:57;;;;;;;;;;;29.90;51.80;;;;;;5074497;28;19917;-79
2022/07/06 09:03:23;;;;;;;;;;;29.90;51.70;;;;;;5056661;28;19959;-79
2022/07/06 09:05:50;;;;;;;;;;;30.00;52.20;;;;;;5074464;28;19931;-80
2022/07/06 09:08:15;;;;;;;;;;;30.00;52.20;;;;;;5056376;28;19909;-79
2022/07/06 09:10:41;;;;;;;;;;;30.00;52.20;;;;;;5074787;28;19908;-79
2022/07/06 09:13:07;;;;;;;;;;;30.10;52.00;;;;;;5058514;28;19963;-79
2022/07/06 09:15:34;;;;;;;;;;;30.20;51.60;;;;;;5074625;28;19915;-79
2022/07/06 09:17:59;;;;;;;;;;;30.10;51.70;;;;;;5075044;28;19974;-79
2022/07/06 09:20:25;;;;;;;;;;;30.10;51.40;;;;;;5075064;28;20007;-79
2022/07/06 09:22:53;;;;;;;;;;;30.20;51.50;;;;;;5074313;28;19913;-79
2022/07/06 09:25:19;;;;;;;;;;;30.20;51.50;;;;;;5058718;28;19908;-81
2022/07/06 09:27:50;;;;;;;;;;;30.20;51.50;;;;;;5057469;28;20262;-79
2022/07/06 09:30:17;;;;;;;;;;;30.20;51.50;;;;;;5056477;28;20273;-78
2022/07/06 09:32:43;;;;;;;;;;;30.20;51.50;;;;;;5074277;28;19951;-79
2022/07/06 09:35:19;;;;;;;;;;;30.20;51.50;;;;;;5074027;28;19916;-79
2022/07/06 09:37:47;;;;;;;;;;;30.20;51.50;;;;;;5047099;28;20386;-78
2022/07/06 09:40:17;;;;;;;;;;;30.20;51.50;;;;;;5069637;28;19916;-79
2022/07/06 09:42:43;;;;;;;;;;;30.30;51.50;;;;;;5054307;28;20015;-79
2022/07/06 09:45:09;;;;;;;;;;;30.30;51.50;;;;;;5069405;28;19968;-80
2022/07/06 09:47:36;;;;;;;;;;;30.30;51.30;;;;;;5053899;28;19916;-81
2022/07/06 09:50:01;;;;;;;;;;;30.30;51.20;;;;;;5054180;28;20401;-79
2022/07/06 09:52:27;;;;;;;;;;;30.30;51.20;;;;;;5053909;28;19913;-80
2022/07/06 09:54:52;;;;;;;;;;;30.30;51.10;;;;;;5054121;28;19915;-79
2022/07/06 09:57:20;;;;;;;;;;;30.30;50.90;;;;;;5035920;28;19909;-79
2022/07/06 09:59:50;;;;;;;;;;;30.30;50.80;;;;;;5053913;28;19909;-78
2022/07/06 10:02:16;;;;;;;;;;;30.30;50.60;;;;;;5054088;28;19913;-78
2022/07/06 10:04:43;;;;;;;;;;;30.30;50.60;;;;;;5053766;28;19912;-79
2022/07/06 10:07:09;;;;;;;;;;;30.30;50.50;;;;;;5037086;28;20383;-79
2022/07/06 10:09:34;;;;;;;;;;;30.30;50.50;;;;;;5036000;28;19909;-79
2022/07/06 10:12:01;;;;;;;;;;;30.40;50.40;;;;;;5053484;28;19944;-78
2022/07/06 10:14:28;;;;;;;;;;;30.40;50.40;;;;;;5053661;28;19909;-79
2022/07/06 10:16:58;;;;;;;;;;;30.40;50.30;;;;;;5069156;28;20013;-78
2022/07/06 10:19:24;;;;;;;;;;;30.40;50.10;;;;;;5053699;28;20029;-78
2022/07/06 10:21:51;;;;;;;;;;;30.50;50.20;;;;;;5053342;28;20375;-78
2022/07/06 10:24:17;;;;;;;;;;;30.50;50.10;;;;;;5053576;28;19967;-79
2022/07/06 10:26:43;;;;;;;;;;;30.60;50.00;;;;;;5019275;28;19912;-79
2022/07/06 10:29:08;;;;;;;;;;;30.60;50.00;;;;;;5069263;28;20330;-78
2022/07/06 10:31:44;;;;;;;;;;;30.60;49.90;;;;;;5054367;28;20394;-78
2022/07/06 10:34:11;;;;;;;;;;;30.60;49.80;;;;;;5057553;28;19955;-78
2022/07/06 10:36:38;;;;;;;;;;;30.60;49.80;;;;;;5053491;28;19999;-78
2022/07/06 10:41:02;;;;;;;;;;;30.70;49.80;;;;;;5073186;28;19924;-77
2022/07/06 10:41:49;;;;;;;;;;;30.70;49.80;;;;;;5073469;28;19917;-77
2022/07/06 10:44:19;;;;;;;;;;;30.70;49.60;;;;;;5055490;28;19913;-77
2022/07/06 10:46:52;;;;;;;;;;;30.70;49.40;;;;;;5055957;28;20010;-77
2022/07/06 10:49:19;;;;;;;;;;;30.70;49.40;;;;;;5058981;28;19912;-78
2022/07/06 10:51:44;;;;;;;;;;;30.70;49.30;;;;;;5059235;28;19920;-79
2022/07/06 10:54:10;;;;;;;;;;;30.70;49.40;;;;;;5079416;28;20516;-77
2022/07/06 10:56:37;;;;;;;;;;;30.70;49.30;;;;;;5060685;28;19990;-77
2022/07/06 10:59:08;;;;;;;;;;;30.80;49.40;;;;;;5077062;28;19940;-77
2022/07/06 11:01:34;;;;;;;;;;;30.70;49.40;;;;;;5059173;28;19916;-78
2022/07/06 11:04:01;;;;;;;;;;;30.80;49.40;;;;;;5076864;28;20377;-76
2022/07/06 11:06:26;;;;;;;;;;;30.80;49.40;;;;;;5076582;28;19955;-77
2022/07/06 11:08:52;;;;;;;;;;;30.80;49.40;;;;;;5059091;28;19912;-80
2022/07/06 11:11:19;;;;;;;;;;;30.80;49.20;;;;;;5076903;28;19909;-80
2022/07/06 11:13:48;;;;;;;;;;;30.80;49.20;;;;;;5076626;28;19955;-79
2022/07/06 11:16:14;;;;;;;;;;;30.80;49.10;;;;;;5058854;28;19912;-79
2022/07/06 11:18:40;;;;;;;;;;;30.80;49.20;;;;;;5076491;28;19944;-80
2022/07/06 11:21:15;;;;;;;;;;;30.80;49.20;;;;;;5058570;28;19913;-80
2022/07/06 11:23:41;;;;;;;;;;;30.80;49.10;;;;;;5076807;28;19966;-79
2022/07/06 11:26:07;;;;;;;;;;;30.80;49.20;;;;;;5076619;28;19912;-79
2022/07/06 11:28:33;;;;;;;;;;;30.90;49.20;;;;;;5076705;28;19908;-80
2022/07/06 11:30:59;;;;;;;;;;;30.90;49.00;;;;;;5076236;28;20420;-79
2022/07/06 11:33:28;;;;;;;;;;;30.90;49.10;;;;;;5076140;28;19908;-78
2022/07/06 11:36:14;;;;;;;;;;;31.00;49.10;;;;;;5076135;28;19919;-79
2022/07/06 11:38:40;;;;;;;;;;;31.20;48.90;;;;;;5061584;28;19978;-79
2022/07/06 11:41:06;;;;;;;;;;;31.30;48.50;;;;;;5076802;28;19960;-78
2022/07/06 11:43:32;;;;;;;;;;;31.50;48.30;;;;;;5077224;28;19919;-80
2022/07/06 11:45:57;;;;;;;;;;;31.70;47.90;;;;;;5076581;28;20373;-79
2022/07/06 11:48:23;;;;;;;;;;;31.70;47.90;;;;;;5077729;28;19909;-78
2022/07/06 11:51:01;;;;;;;;;;;31.90;47.90;;;;;;5076177;28;20362;-79
2022/07/06 11:53:26;;;;;;;;;;;32.00;47.30;;;;;;5075787;28;20282;-78
2022/07/06 11:55:52;;;;;;;;;;;32.10;46.20;;;;;;5075882;28;19915;-78
2022/07/06 11:58:23;;;;;;;;;;;32.20;46.40;;;;;;5057482;28;20010;-79
2022/07/06 12:01:04;;;;;;;;;;;32.30;46.40;;;;;;5057615;28;19912;-79
2022/07/06 12:03:30;;;;;;;;;;;32.40;46.60;;;;;;5075886;28;19919;-79
2022/07/06 12:05:56;;;;;;;;;;;32.60;46.10;;;;;;5075625;28;19909;-78
2022/07/06 12:08:21;;;;;;;;;;;32.60;46.00;;;;;;5075846;28;19939;-79
2022/07/06 12:10:47;;;;;;;;;;;32.60;45.90;;;;;;5075672;28;19955;-78
2022/07/06 12:13:12;;;;;;;;;;;32.80;46.20;;;;;;5075493;28;19916;-78
2022/07/06 12:15:38;;;;;;;;;;;32.90;46.30;;;;;;5075518;28;19908;-79
2022/07/06 12:18:03;;;;;;;;;;;33.00;46.10;;;;;;5075407;28;19912;-79
2022/07/06 12:20:29;;;;;;;;;;;33.10;46.30;;;;;;5076804;28;19912;-79
2022/07/06 12:23:01;;;;;;;;;;;33.20;46.70;;;;;;5075789;28;19951;-78
2022/07/06 12:25:35;;;;;;;;;;;33.30;46.60;;;;;;5075088;28;20001;-78
2022/07/06 12:28:00;;;;;;;;;;;33.40;46.40;;;;;;5057641;28;20268;-78
2022/07/06 12:30:26;;;;;;;;;;;33.50;46.40;;;;;;5075398;28;19909;-79
2022/07/06 12:33:11;;;;;;;;;;;33.60;46.20;;;;;;5076134;28;19947;-79
2022/07/06 12:35:36;;;;;;;;;;;33.60;45.90;;;;;;5076857;28;19912;-79
2022/07/06 12:38:02;;;;;;;;;;;33.70;45.90;;;;;;5074980;28;20355;-79
2022/07/06 12:40:28;;;;;;;;;;;33.70;45.80;;;;;;5075003;28;19913;-78
2022/07/06 12:42:54;;;;;;;;;;;33.80;45.80;;;;;;5075017;28;19916;-78
2022/07/06 12:45:25;;;;;;;;;;;33.90;45.70;;;;;;5075096;28;19963;-79
2022/07/06 12:47:58;;;;;;;;;;;33.90;45.80;;;;;;5074982;28;19912;-79
2022/07/06 12:50:31;;;;;;;;;;;34.00;45.80;;;;;;5075530;28;20382;-79
2022/07/06 12:52:56;;;;;;;;;;;34.10;46.10;;;;;;5075205;28;20003;-79
2022/07/06 12:55:25;;;;;;;;;;;34.20;45.70;;;;;;5074882;28;19986;-79
2022/07/06 12:57:51;;;;;;;;;;;34.30;46.10;;;;;;5074537;28;20270;-79
2022/07/06 13:00:17;;;;;;;;;;;34.40;46.00;;;;;;5074607;28;19908;-79
2022/07/06 13:02:48;;;;;;;;;;;34.50;45.80;;;;;;5057702;28;20279;-78
2022/07/06 13:05:14;;;;;;;;;;;34.50;45.70;;;;;;5074498;28;19930;-79
2022/07/06 13:07:47;;;;;;;;;;;34.50;45.60;;;;;;5056509;28;19912;-78
2022/07/06 13:10:13;;;;;;;;;;;34.50;45.50;;;;;;5056278;28;20277;-78
2022/07/06 13:12:39;;;;;;;;;;;34.40;45.00;;;;;;5056455;28;19915;-79
2022/07/06 13:15:05;;;;;;;;;;;34.40;45.40;;;;;;5074395;28;19995;-79
2022/07/06 13:17:31;;;;;;;;;;;34.30;45.30;;;;;;5074109;28;19962;-79
2022/07/06 13:19:56;;;;;;;;;;;34.40;45.70;;;;;;5056141;28;19908;-78
2022/07/06 13:22:22;;;;;;;;;;;34.50;45.70;;;;;;5074113;28;19956;-79
2022/07/06 13:24:48;;;;;;;;;;;34.70;45.60;;;;;;5074228;28;19949;-78
2022/07/06 13:27:13;;;;;;;;;;;34.90;45.80;;;;;;5074176;28;20022;-79
2022/07/06 13:29:39;;;;;;;;;;;35.00;45.50;;;;;;5073952;28;19909;-79
2022/07/06 13:32:05;;;;;;;;;;;35.30;45.40;;;;;;5074192;28;19944;-79
2022/07/06 13:34:31;;;;;;;;;;;35.50;45.40;;;;;;5056173;28;19958;-79
2022/07/06 13:36:57;;;;;;;;;;;35.90;45.00;;;;;;5074300;28;19916;-79
2022/07/06 13:39:23;;;;;;;;;;;36.30;44.50;;;;;;5056290;28;19909;-78
2022/07/06 13:41:49;;;;;;;;;;;37.00;43.90;;;;;;5074151;28;19916;-79
2022/07/06 13:44:14;;;;;;;;;;;37.70;43.10;;;;;;5074053;28;20254;-78
2022/07/06 13:46:40;;;;;;;;;;;38.60;42.20;;;;;;5073863;28;19923;-79
2022/07/06 13:49:06;;;;;;;;;;;39.40;41.30;;;;;;5074410;28;20010;-79
2022/07/06 13:51:32;;;;;;;;;;;40.20;41.10;;;;;;5056755;28;19908;-80
2022/07/06 13:53:58;;;;;;;;;;;41.00;39.70;;;;;;5056220;28;20251;-79
2022/07/06 13:56:24;;;;;;;;;;;41.80;39.30;;;;;;5073692;28;19913;-80
2022/07/06 13:58:50;;;;;;;;;;;42.60;39.70;;;;;;5074654;28;19915;-79
2022/07/06 14:01:16;;;;;;;;;;;43.40;38.20;;;;;;5075525;28;20018;-78
2022/07/06 14:03:41;;;;;;;;;;;44.10;36.80;;;;;;5073889;28;20347;-79
2022/07/06 14:06:07;;;;;;;;;;;44.70;37.20;;;;;;5056229;28;19951;-79
2022/07/06 14:08:34;;;;;;;;;;;45.20;38.30;;;;;;5056243;28;19943;-79
2022/07/06 14:11:00;;;;;;;;;;;45.70;35.60;;;;;;5075267;28;19908;-80
2022/07/06 14:13:26;;;;;;;;;;;46.20;37.00;;;;;;5076071;28;19909;-79
2022/07/06 14:15:52;;;;;;;;;;;46.60;37.70;;;;;;5074637;28;19909;-80